NCAR-RAP Real-Time Weather Data

Output produced by METARs form (26 May 2022  08:13 UTC)
found at http://weather.rap.ucar.edu/surface/
 
VVDN 260730Z 20008KT 9999 FEW015 BKN060 34/24 Q1002 NOSIG
VVDN 260700Z 21008KT 9999 FEW015 SCT060 35/24 Q1002 NOSIG
VVDN 260630Z 20009KT 9999 FEW015 SCT060 35/25 Q1002 NOSIG
VVDN 260600Z 20010KT 9999 FEW015 BKN060 34/23 Q1003 NOSIG
VVDN 260530Z 21008KT 9999 FEW015 BKN060 34/23 Q1003 NOSIG
VVDN 260500Z 22010KT 180V250 9999 FEW015 SCT070 34/25 Q1004 NOSIG
VVDN 260430Z 20009KT 9999 FEW015 SCT070 35/25 Q1004 NOSIG
VVDN 260400Z VRB01KT 9999 FEW015 SCT070 35/24 Q1005 NOSIG
VVDN 260330Z 30003KT 240V340 9999 FEW015 SCT070 34/24 Q1005 NOSIG
VVDN 260300Z VRB02KT 9999 FEW015 SCT070 33/25 Q1006 NOSIG
VVDN 260230Z 20003KT 150V240 9999 FEW015 SCT070 33/24 Q1005 NOSIG
VVDN 260200Z VRB01KT 9999 FEW015 SCT070 33/24 Q1006 NOSIG
VVDN 260130Z 18003KT 140V230 9999 FEW015 33/25 Q1006 NOSIG
VVDN 260100Z 19004KT 140V250 9999 FEW015 32/25 Q1006 NOSIG
VVDN 260030Z VRB01KT 9999 FEW015 31/25 Q1005 NOSIG
VVDN 260000Z 00000KT 9999 FEW015 31/25 Q1005 NOSIG
VVDN 252330Z 00000KT 9999 FEW015 28/25 Q1005 NOSIG
VVDN 252300Z 20001KT 9999 FEW015 27/25 Q1004 NOSIG
VVDN 252230Z 19002KT 9999 FEW015 26/24 Q1004 NOSIG
VVDN 252200Z VRB01KT 9999 FEW015 26/24 Q1004 NOSIG
VVDN 252130Z 19001KT 8000 FEW015 27/24 Q1004 NOSIG
VVDN 252100Z VRB01KT 8000 FEW015 27/24 Q1004 NOSIG
VVDN 252030Z 13001KT 8000 FEW015 26/24 Q1004 NOSIG